Time;durP1;ratioP1;P1;durP2;ratioP2;P2;SDS_P1;SDS_P2;PMS_P1;PMS_P2;Temp;Humidity;BMP_temperature;BMP_pressure;BME280_temperature;BME280_humidity;BME280_pressure;Samples;Min_cycle;Max_cycle;Signal;HPM_P1;HPM_P2
2023/04/28 00:01:00;;;;;;;3.42;3.25;;;;;;;;;;4174023;28;20049;-61
2023/04/28 00:03:20;;;;;;;3.83;3.70;;;;;;;;;;4172812;28;20061;-61
2023/04/28 00:05:40;;;;;;;4.38;4.00;;;;;;;;;;4172143;28;20257;-61
2023/04/28 00:08:02;;;;;;;3.78;3.67;;;;;;;;;;4174118;28;20272;-61
2023/04/28 00:10:22;;;;;;;4.18;3.97;;;;;;;;;;4173654;28;20055;-61
2023/04/28 00:12:42;;;;;;;4.80;4.60;;;;;;;;;;4172624;28;20398;-61
2023/04/28 00:15:02;;;;;;;4.20;4.00;;;;;;;;;;4174011;28;20107;-61
2023/04/28 00:17:22;;;;;;;4.03;3.65;;;;;;;;;;4173973;28;20263;-61
2023/04/28 00:19:43;;;;;;;3.25;3.05;;;;;;;;;;4173090;28;20071;-61
2023/04/28 00:22:04;;;;;;;4.38;4.18;;;;;;;;;;4171988;28;20052;-61
2023/04/28 00:24:23;;;;;;;5.25;4.88;;;;;;;;;;4173008;28;20047;-61
2023/04/28 00:26:44;;;;;;;3.30;3.20;;;;;;;;;;4173858;28;20076;-61
2023/04/28 00:29:04;;;;;;;4.50;4.25;;;;;;;;;;4172752;28;20088;-61
2023/04/28 00:31:24;;;;;;;3.97;3.78;;;;;;;;;;4173587;28;20399;-61
2023/04/28 00:33:45;;;;;;;4.72;4.55;;;;;;;;;;4172486;28;20283;-61
2023/04/28 00:36:05;;;;;;;4.57;4.22;;;;;;;;;;4173724;28;20104;-61
2023/04/28 00:38:26;;;;;;;4.78;4.57;;;;;;;;;;4173590;28;20245;-61
2023/04/28 00:40:47;;;;;;;3.80;3.58;;;;;;;;;;4173301;28;20052;-61
2023/04/28 00:43:07;;;;;;;4.95;4.57;;;;;;;;;;4173659;28;20056;-61
2023/04/28 00:45:27;;;;;;;4.35;4.03;;;;;;;;;;4173181;28;20363;-61
2023/04/28 00:47:47;;;;;;;5.00;4.80;;;;;;;;;;4173387;28;20072;-61
2023/04/28 00:50:09;;;;;;;3.42;3.33;;;;;;;;;;4172558;28;20144;-61
2023/04/28 00:52:29;;;;;;;3.75;3.65;;;;;;;;;;4173453;28;20064;-61
2023/04/28 00:54:49;;;;;;;2.80;2.70;;;;;;;;;;4172568;28;20084;-61
2023/04/28 00:57:10;;;;;;;3.28;3.17;;;;;;;;;;4173049;28;20079;-61
2023/04/28 00:59:30;;;;;;;3.15;3.15;;;;;;;;;;4173476;28;20047;-61
2023/04/28 01:01:50;;;;;;;3.33;3.22;;;;;;;;;;4173433;28;20083;-61
2023/04/28 01:04:10;;;;;;;4.05;3.85;;;;;;;;;;4192872;22;20071;-83
2023/04/28 01:06:31;;;;;;;4.20;3.88;;;;;;;;;;4187574;28;20397;-83
2023/04/28 01:08:52;;;;;;;4.30;4.10;;;;;;;;;;4185311;28;20087;-82
2023/04/28 01:11:15;;;;;;;4.18;4.07;;;;;;;;;;4171677;28;20100;-83
2023/04/28 01:13:35;;;;;;;4.32;4.22;;;;;;;;;;4185854;28;20260;-83
2023/04/28 01:15:55;;;;;;;5.20;5.00;;;;;;;;;;4188289;28;20048;-82
2023/04/28 01:18:16;;;;;;;5.35;4.88;;;;;;;;;;4188102;28;20086;-83
2023/04/28 01:20:36;;;;;;;4.55;3.78;;;;;;;;;;4171315;28;20044;-83
2023/04/28 01:22:56;;;;;;;4.38;3.67;;;;;;;;;;4188081;28;20239;-83
2023/04/28 01:25:17;;;;;;;4.20;3.90;;;;;;;;;;4187272;28;20048;-83
2023/04/28 01:27:37;;;;;;;6.50;3.67;;;;;;;;;;4186243;28;20324;-82
2023/04/28 01:29:57;;;;;;;4.63;4.18;;;;;;;;;;4188926;28;20083;-83
2023/04/28 01:32:17;;;;;;;5.78;3.72;;;;;;;;;;4186849;28;20358;-82
2023/04/28 01:34:38;;;;;;;3.20;3.10;;;;;;;;;;4184946;28;20048;-83
2023/04/28 01:36:58;;;;;;;4.75;4.05;;;;;;;;;;4171243;28;20088;-83
2023/04/28 01:39:18;;;;;;;5.07;4.65;;;;;;;;;;4188148;28;20112;-82
2023/04/28 01:41:38;;;;;;;4.40;4.18;;;;;;;;;;4180383;28;20044;-82
2023/04/28 01:43:59;;;;;;;3.80;3.60;;;;;;;;;;4158163;28;20049;-82
2023/04/28 01:46:19;;;;;;;4.35;4.15;;;;;;;;;;4156990;28;20109;-82
2023/04/28 01:48:39;;;;;;;3.30;3.30;;;;;;;;;;4175954;28;20240;-83
2023/04/28 01:51:00;;;;;;;4.38;4.10;;;;;;;;;;4179792;28;20104;-83
2023/04/28 01:53:20;;;;;;;4.43;4.22;;;;;;;;;;4156442;28;20070;-83
2023/04/28 01:55:40;;;;;;;3.83;3.63;;;;;;;;;;4147564;28;20144;-83
2023/04/28 01:58:00;;;;;;;4.53;4.28;;;;;;;;;;4177239;28;20135;-83
2023/04/28 02:00:21;;;;;;;3.95;3.65;;;;;;;;;;4159304;28;20061;-82
2023/04/28 02:02:41;;;;;;;4.85;4.70;;;;;;;;;;4174859;28;20144;-82
2023/04/28 02:05:01;;;;;;;4.28;4.05;;;;;;;;;;4164566;28;20095;-83
2023/04/28 02:07:22;;;;;;;4.60;4.50;;;;;;;;;;4176958;28;20079;-83
2023/04/28 02:09:42;;;;;;;4.88;4.78;;;;;;;;;;4171043;28;20055;-83
2023/04/28 02:12:02;;;;;;;4.82;4.53;;;;;;;;;;4178180;28;20082;-83
2023/04/28 02:14:23;;;;;;;5.00;4.80;;;;;;;;;;4179467;28;20056;-83
2023/04/28 02:16:43;;;;;;;5.05;4.85;;;;;;;;;;4172120;28;20399;-83
2023/04/28 02:19:03;;;;;;;5.32;5.03;;;;;;;;;;4156272;28;20057;-83
2023/04/28 02:21:25;;;;;;;5.18;4.90;;;;;;;;;;4178197;28;20269;-83
2023/04/28 02:23:45;;;;;;;4.78;4.57;;;;;;;;;;4156556;28;20045;-83
2023/04/28 02:26:05;;;;;;;5.05;4.78;;;;;;;;;;4167284;28;20395;-82
2023/04/28 02:28:26;;;;;;;5.00;4.60;;;;;;;;;;4168717;28;20091;-83
2023/04/28 02:30:46;;;;;;;4.28;3.97;;;;;;;;;;4170304;28;20044;-83
2023/04/28 02:33:06;;;;;;;4.85;4.75;;;;;;;;;;4167894;28;20052;-83
2023/04/28 02:35:27;;;;;;;4.55;4.45;;;;;;;;;;4149561;28;20049;-83
2023/04/28 02:37:47;;;;;;;4.20;4.00;;;;;;;;;;4169062;28;20055;-83
2023/04/28 02:40:08;;;;;;;4.70;4.60;;;;;;;;;;4172876;28;20410;-83
2023/04/28 02:42:28;;;;;;;4.38;4.13;;;;;;;;;;4165366;28;20068;-83
2023/04/28 02:44:48;;;;;;;4.85;4.75;;;;;;;;;;4165145;28;20398;-82
2023/04/28 02:47:08;;;;;;;4.90;4.68;;;;;;;;;;4170386;28;20086;-83
2023/04/28 02:49:29;;;;;;;4.88;4.57;;;;;;;;;;4172652;28;20072;-82
2023/04/28 02:51:49;;;;;;;4.88;4.78;;;;;;;;;;4157588;28;20041;-82
2023/04/28 02:54:10;;;;;;;4.45;4.32;;;;;;;;;;4166694;28;20095;-83
2023/04/28 02:56:30;;;;;;;4.88;4.60;;;;;;;;;;4142106;28;20049;-83
2023/04/28 02:58:50;;;;;;;4.47;4.20;;;;;;;;;;4176265;28;20048;-83
2023/04/28 03:01:11;;;;;;;5.57;5.05;;;;;;;;;;4158095;28;20057;-82
2023/04/28 03:03:32;;;;;;;6.05;5.65;;;;;;;;;;4175029;28;20094;-82
2023/04/28 03:05:52;;;;;;;5.28;5.18;;;;;;;;;;4167178;28;20148;-83
2023/04/28 03:08:13;;;;;;;6.25;6.05;;;;;;;;;;4158176;28;20049;-82
2023/04/28 03:10:33;;;;;;;5.65;5.32;;;;;;;;;;4161741;28;20053;-82
2023/04/28 03:12:54;;;;;;;6.43;5.93;;;;;;;;;;4178529;28;20117;-83
2023/04/28 03:15:14;;;;;;;6.25;6.03;;;;;;;;;;4176225;28;20135;-82
2023/04/28 03:17:40;;;;;;;6.82;5.45;;;;;;;;;;4175276;28;20052;-83
2023/04/28 03:20:01;;;;;;;6.95;6.65;;;;;;;;;;4173935;28;20052;-82
2023/04/28 03:22:21;;;;;;;6.85;6.57;;;;;;;;;;4161535;28;20080;-82
2023/04/28 03:24:41;;;;;;;7.05;6.57;;;;;;;;;;4172604;28;20113;-82
2023/04/28 03:27:02;;;;;;;7.57;7.07;;;;;;;;;;4157170;28;20301;-82
2023/04/28 03:29:24;;;;;;;6.35;6.15;;;;;;;;;;4175479;28;20060;-82
2023/04/28 03:31:44;;;;;;;5.97;5.55;;;;;;;;;;4175062;28;20088;-82
2023/04/28 03:34:04;;;;;;;6.57;6.28;;;;;;;;;;4175501;28;20105;-82
2023/04/28 03:36:26;;;;;;;6.20;6.05;;;;;;;;;;4171944;28;20084;-82
2023/04/28 03:38:46;;;;;;;7.13;6.72;;;;;;;;;;4177125;28;20051;-82
2023/04/28 03:41:06;;;;;;;5.72;5.45;;;;;;;;;;4175703;28;20044;-82
2023/04/28 03:43:26;;;;;;;6.15;5.80;;;;;;;;;;4178106;28;20048;-82
2023/04/28 03:45:46;;;;;;;6.57;6.18;;;;;;;;;;4170334;28;20283;-82
2023/04/28 03:48:07;;;;;;;5.72;5.63;;;;;;;;;;4178638;28;20301;-83
2023/04/28 03:50:27;;;;;;;7.05;6.75;;;;;;;;;;4180252;28;20059;-82
2023/04/28 03:52:48;;;;;;;6.15;5.68;;;;;;;;;;4177799;28;20101;-82
2023/04/28 03:55:08;;;;;;;5.55;5.28;;;;;;;;;;4174135;28;20052;-82
2023/04/28 03:57:28;;;;;;;5.97;5.78;;;;;;;;;;4178043;28;20044;-82
2023/04/28 03:59:48;;;;;;;6.55;6.10;;;;;;;;;;4182770;28;20374;-83
2023/04/28 04:02:09;;;;;;;5.30;5.10;;;;;;;;;;4165693;28;20053;-82
2023/04/28 04:04:29;;;;;;;6.10;5.68;;;;;;;;;;4169109;28;20102;-82
2023/04/28 04:06:51;;;;;;;5.45;5.05;;;;;;;;;;4164826;28;20130;-82
2023/04/28 04:09:11;;;;;;;5.78;5.60;;;;;;;;;;4175478;28;20045;-82
2023/04/28 04:11:31;;;;;;;7.18;5.18;;;;;;;;;;4156976;28;20077;-82
2023/04/28 04:13:51;;;;;;;5.68;5.47;;;;;;;;;;4176023;28;20240;-82
2023/04/28 04:16:14;;;;;;;5.65;5.15;;;;;;;;;;4163610;28;20069;-82
2023/04/28 04:18:34;;;;;;;;;;;;;;;;;;4177051;28;20244;-82
2023/04/28 04:20:56;;;;;;;5.68;5.22;;;;;;;;;;4174019;28;19924;-82
2023/04/28 04:23:16;;;;;;;5.65;5.45;;;;;;;;;;4170435;28;20089;-82
2023/04/28 04:25:36;;;;;;;6.85;6.75;;;;;;;;;;4159051;28;20040;-82
2023/04/28 04:27:56;;;;;;;6.53;6.35;;;;;;;;;;4161417;28;20332;-82
2023/04/28 04:30:16;;;;;;;7.32;6.93;;;;;;;;;;4176676;28;20394;-82
2023/04/28 04:32:36;;;;;;;6.03;5.85;;;;;;;;;;4158673;28;20088;-82
2023/04/28 04:34:57;;;;;;;6.97;6.50;;;;;;;;;;4174879;28;20060;-82
2023/04/28 04:37:18;;;;;;;5.22;5.05;;;;;;;;;;4177143;28;20061;-82
2023/04/28 04:39:38;;;;;;;5.65;4.72;;;;;;;;;;4158891;28;20073;-82
2023/04/28 04:41:59;;;;;;;5.60;5.28;;;;;;;;;;4174853;28;20044;-82
2023/04/28 04:44:23;;;;;;;5.53;5.43;;;;;;;;;;4163947;28;20064;-82
2023/04/28 04:46:43;;;;;;;6.40;6.07;;;;;;;;;;4148065;28;20420;-82
2023/04/28 04:49:03;;;;;;;5.97;5.75;;;;;;;;;;4148224;28;20101;-82
2023/04/28 04:51:23;;;;;;;5.63;5.20;;;;;;;;;;4172330;28;20324;-82
2023/04/28 04:53:44;;;;;;;6.47;6.28;;;;;;;;;;4159136;28;20049;-82
2023/04/28 04:56:03;;;;;;;6.53;6.13;;;;;;;;;;4170312;28;20359;-82
2023/04/28 04:58:24;;;;;;;6.15;5.85;;;;;;;;;;4175456;28;20101;-82
2023/04/28 05:00:44;;;;;;;5.68;5.47;;;;;;;;;;4169883;28;20398;-82
2023/04/28 05:03:05;;;;;;;5.72;5.43;;;;;;;;;;4178273;28;20150;-82
2023/04/28 05:05:25;;;;;;;5.75;5.55;;;;;;;;;;4159613;28;20594;-82
2023/04/28 05:07:46;;;;;;;5.43;5.30;;;;;;;;;;4166671;28;20142;-82
2023/04/28 05:10:06;;;;;;;5.70;5.40;;;;;;;;;;4172587;28;20406;-82
2023/04/28 05:12:26;;;;;;;5.97;5.57;;;;;;;;;;4176191;28;20052;-82
2023/04/28 05:14:47;;;;;;;5.95;5.55;;;;;;;;;;4166944;28;20042;-82
2023/04/28 05:17:07;;;;;;;5.50;5.20;;;;;;;;;;4181394;28;20057;-82
2023/04/28 05:19:27;;;;;;;5.30;5.15;;;;;;;;;;4157778;28;20089;-87
2023/04/28 05:21:47;;;;;;;5.38;5.18;;;;;;;;;;4176923;28;20053;-88
2023/04/28 05:24:08;;;;;;;6.03;5.72;;;;;;;;;;4173387;28;20085;-87
2023/04/28 05:26:28;;;;;;;5.28;5.07;;;;;;;;;;4169976;28;20052;-87
2023/04/28 05:28:48;;;;;;;5.43;5.13;;;;;;;;;;4160448;28;20053;-87
2023/04/28 05:31:08;;;;;;;4.82;4.53;;;;;;;;;;4178753;28;20117;-87
2023/04/28 05:33:28;;;;;;;7.65;6.68;;;;;;;;;;4175706;28;20267;-88
2023/04/28 05:35:48;;;;;;;4.93;4.82;;;;;;;;;;4172257;28;20047;-87
2023/04/28 05:38:08;;;;;;;4.22;3.92;;;;;;;;;;4161595;28;20057;-87
2023/04/28 05:40:29;;;;;;;6.10;5.90;;;;;;;;;;4158393;28;20299;-87
2023/04/28 05:42:49;;;;;;;6.25;5.85;;;;;;;;;;4170887;28;20044;-87
2023/04/28 05:45:10;;;;;;;4.68;4.50;;;;;;;;;;4154834;28;20103;-87
2023/04/28 05:47:30;;;;;;;6.50;6.25;;;;;;;;;;4167771;28;20049;-87
2023/04/28 05:49:51;;;;;;;6.78;6.20;;;;;;;;;;4159453;28;20081;-88
2023/04/28 05:52:11;;;;;;;5.97;5.63;;;;;;;;;;4165414;28;20044;-88
2023/04/28 05:54:33;;;;;;;6.20;6.00;;;;;;;;;;4157450;28;20053;-88
2023/04/28 05:56:53;;;;;;;7.32;6.68;;;;;;;;;;4172476;28;20109;-88
2023/04/28 05:59:14;;;;;;;5.55;5.35;;;;;;;;;;4160271;28;20375;-87
2023/04/28 06:01:35;;;;;;;5.40;5.20;;;;;;;;;;4180700;28;20083;-87
2023/04/28 06:03:57;;;;;;;5.95;5.50;;;;;;;;;;4156844;28;20076;-87
2023/04/28 06:06:18;;;;;;;6.15;5.95;;;;;;;;;;4177008;28;20137;-87
2023/04/28 06:08:38;;;;;;;5.20;5.00;;;;;;;;;;4167220;28;20057;-87
2023/04/28 06:10:58;;;;;;;6.15;3.97;;;;;;;;;;4173979;28;20116;-87
2023/04/28 06:13:19;;;;;;;5.32;5.03;;;;;;;;;;4172347;28;20075;-87
2023/04/28 06:15:39;;;;;;;3.78;3.58;;;;;;;;;;4180953;28;20267;-87
2023/04/28 06:18:00;;;;;;;4.70;4.47;;;;;;;;;;4166628;28;20065;-88
2023/04/28 06:20:20;;;;;;;4.88;4.60;;;;;;;;;;4173926;28;20062;-85
2023/04/28 06:22:41;;;;;;;8.50;4.43;;;;;;;;;;4175381;28;20084;-85
2023/04/28 06:25:02;;;;;;;4.28;3.47;;;;;;;;;;4177213;28;20367;-85
2023/04/28 06:27:22;;;;;;;4.68;4.32;;;;;;;;;;4173912;28;20056;-85
2023/04/28 06:29:42;;;;;;;6.93;4.03;;;;;;;;;;4167272;28;20053;-85
2023/04/28 06:32:02;;;;;;;3.08;2.88;;;;;;;;;;4157717;28;20048;-85
2023/04/28 06:34:27;;;;;;;3.45;3.35;;;;;;;;;;4168622;28;20113;-85
2023/04/28 06:36:47;;;;;;;4.28;3.08;;;;;;;;;;4163576;28;20053;-85
2023/04/28 06:39:08;;;;;;;3.38;3.20;;;;;;;;;;4167134;28;20103;-85
2023/04/28 06:41:28;;;;;;;3.20;2.97;;;;;;;;;;4157888;28;20080;-85
2023/04/28 06:43:49;;;;;;;3.33;3.05;;;;;;;;;;4156199;28;20064;-85
2023/04/28 06:46:10;;;;;;;4.60;3.05;;;;;;;;;;4154344;28;20092;-85
2023/04/28 06:48:30;;;;;;;1.90;1.80;;;;;;;;;;4153964;28;20381;-85
2023/04/28 06:50:50;;;;;;;2.72;2.53;;;;;;;;;;4174070;28;20080;-85
2023/04/28 06:53:10;;;;;;;2.60;2.50;;;;;;;;;;4153751;28;20049;-85
2023/04/28 06:55:31;;;;;;;3.00;2.47;;;;;;;;;;4153401;28;20079;-85
2023/04/28 06:57:51;;;;;;;3.63;3.33;;;;;;;;;;4169906;28;20144;-85
2023/04/28 07:00:12;;;;;;;4.18;2.40;;;;;;;;;;4175815;28;20048;-85
2023/04/28 07:02:32;;;;;;;2.30;2.20;;;;;;;;;;4157585;28;20073;-85
2023/04/28 07:04:54;;;;;;;2.38;2.38;;;;;;;;;;4167483;28;20111;-86
2023/04/28 07:07:14;;;;;;;2.67;2.47;;;;;;;;;;4158474;28;20101;-85
2023/04/28 07:09:35;;;;;;;2.72;2.50;;;;;;;;;;4156036;28;20057;-85
2023/04/28 07:11:55;;;;;;;2.20;2.05;;;;;;;;;;4159139;28;20072;-84
2023/04/28 07:14:16;;;;;;;2.20;2.10;;;;;;;;;;4176198;28;20053;-84
2023/04/28 07:16:37;;;;;;;2.00;1.90;;;;;;;;;;4164718;28;20056;-85
2023/04/28 07:18:57;;;;;;;2.50;2.50;;;;;;;;;;4175660;28;20225;-86
2023/04/28 07:21:17;;;;;;;2.60;2.38;;;;;;;;;;4164092;28;20085;-86
2023/04/28 07:23:37;;;;;;;3.53;1.73;;;;;;;;;;4169108;28;20055;-86
2023/04/28 07:25:57;;;;;;;1.83;1.73;;;;;;;;;;4159590;28;20198;-86
2023/04/28 07:28:19;;;;;;;1.90;1.80;;;;;;;;;;4175501;28;20072;-87
2023/04/28 07:30:39;;;;;;;1.75;1.75;;;;;;;;;;4177124;28;20098;-84
2023/04/28 07:33:00;;;;;;;1.95;1.85;;;;;;;;;;4183141;28;20267;-84
2023/04/28 07:35:20;;;;;;;2.20;2.10;;;;;;;;;;4159884;28;20080;-84
2023/04/28 07:37:41;;;;;;;2.88;1.80;;;;;;;;;;4160870;28;20057;-84
2023/04/28 07:40:01;;;;;;;1.63;1.52;;;;;;;;;;4178896;28;20040;-84
2023/04/28 07:42:22;;;;;;;1.48;1.45;;;;;;;;;;4177734;28;20048;-84
2023/04/28 07:44:42;;;;;;;1.50;1.40;;;;;;;;;;4161854;28;20129;-84
2023/04/28 07:47:02;;;;;;;1.50;1.40;;;;;;;;;;4176191;28;20299;-84
2023/04/28 07:49:23;;;;;;;3.80;1.40;;;;;;;;;;4162912;28;20164;-84
2023/04/28 07:51:43;;;;;;;2.15;1.50;;;;;;;;;;4159544;28;20089;-84
2023/04/28 07:54:03;;;;;;;1.50;1.50;;;;;;;;;;4180564;28;20048;-84
2023/04/28 07:56:25;;;;;;;3.47;2.22;;;;;;;;;;4163815;28;20103;-84
2023/04/28 07:58:45;;;;;;;1.75;1.60;;;;;;;;;;4173280;28;20045;-84
2023/04/28 08:01:05;;;;;;;2.10;2.00;;;;;;;;;;4178018;28;20049;-84
2023/04/28 08:03:25;;;;;;;1.38;1.33;;;;;;;;;;4167624;28;20052;-84
2023/04/28 08:05:46;;;;;;;5.15;1.38;;;;;;;;;;4176690;28;20072;-84
2023/04/28 08:08:08;;;;;;;1.58;1.48;;;;;;;;;;4172102;28;20497;-84
2023/04/28 08:10:28;;;;;;;9.85;9.07;;;;;;;;;;4162792;28;20133;-84
2023/04/28 08:12:48;;;;;;;8.93;8.38;;;;;;;;;;4175599;28;20052;-85
2023/04/28 08:15:09;;;;;;;2.70;2.50;;;;;;;;;;4157574;28;20104;-85
2023/04/28 08:17:29;;;;;;;1.73;1.63;;;;;;;;;;4162140;28;20090;-85
2023/04/28 08:19:50;;;;;;;2.95;2.63;;;;;;;;;;4181194;28;20393;-85
2023/04/28 08:22:10;;;;;;;7.38;4.32;;;;;;;;;;4174163;28;20228;-85
2023/04/28 08:24:33;;;;;;;1.40;1.30;;;;;;;;;;4170635;28;20099;-85
2023/04/28 08:26:53;;;;;;;1.55;1.45;;;;;;;;;;4159342;28;20053;-85
2023/04/28 08:29:13;;;;;;;1.52;1.42;;;;;;;;;;4156831;28;20053;-85
2023/04/28 08:31:33;;;;;;;1.60;1.50;;;;;;;;;;4158759;28;20053;-85
2023/04/28 08:33:54;;;;;;;3.80;1.98;;;;;;;;;;4158191;28;20089;-85
2023/04/28 08:36:16;;;;;;;1.30;1.20;;;;;;;;;;4153541;28;20049;-85
2023/04/28 08:38:38;;;;;;;1.10;1.10;;;;;;;;;;4176024;28;20095;-85
2023/04/28 08:40:58;;;;;;;1.75;1.38;;;;;;;;;;4153613;28;20363;-86
2023/04/28 08:43:20;;;;;;;1.00;1.00;;;;;;;;;;4161785;28;20104;-86
2023/04/28 08:45:41;;;;;;;1.52;1.02;;;;;;;;;;4161497;28;20048;-85
2023/04/28 08:48:03;;;;;;;2.05;1.00;;;;;;;;;;4165279;28;20052;-86
2023/04/28 08:50:23;;;;;;;1.17;1.17;;;;;;;;;;4178362;28;20371;-86
2023/04/28 08:52:44;;;;;;;1.77;1.45;;;;;;;;;;4162998;28;20111;-86
2023/04/28 08:55:08;;;;;;;1.30;1.20;;;;;;;;;;4158667;28;20076;-86
2023/04/28 08:57:30;;;;;;;1.10;1.10;;;;;;;;;;4164073;28;20107;-86
2023/04/28 08:59:51;;;;;;;3.13;1.13;;;;;;;;;;4157093;28;20049;-86
2023/04/28 09:02:11;;;;;;;1.00;1.00;;;;;;;;;;4173536;28;20275;-86
2023/04/28 09:04:32;;;;;;;1.10;1.10;;;;;;;;;;4157765;28;20041;-85
2023/04/28 09:06:52;;;;;;;1.08;1.08;;;;;;;;;;4158657;28;20069;-86
2023/04/28 09:09:26;;;;;;;4.03;1.20;;;;;;;;;;4159784;28;20359;-86
2023/04/28 09:12:05;;;;;;;0.90;0.90;;;;;;;;;;4159733;28;20060;-85
2023/04/28 09:14:25;;;;;;;1.83;1.20;;;;;;;;;;4162069;28;20053;-86
2023/04/28 09:16:46;;;;;;;2.35;1.30;;;;;;;;;;4143302;28;20266;-86
2023/04/28 09:19:07;;;;;;;2.05;1.00;;;;;;;;;;4181419;28;20084;-85
2023/04/28 09:21:27;;;;;;;1.33;1.23;;;;;;;;;;4144400;28;20092;-86
2023/04/28 09:23:49;;;;;;;2.92;1.45;;;;;;;;;;4162205;28;20113;-86
2023/04/28 09:26:10;;;;;;;1.10;1.00;;;;;;;;;;4172148;28;20105;-86
2023/04/28 09:28:30;;;;;;;1.10;1.00;;;;;;;;;;4174286;28;20076;-85
2023/04/28 09:30:51;;;;;;;1.00;1.00;;;;;;;;;;4156489;28;20057;-86
2023/04/28 09:33:11;;;;;;;1.83;1.00;;;;;;;;;;4179745;28;20053;-86
2023/04/28 09:35:44;;;;;;;1.00;1.00;;;;;;;;;;4176998;28;20076;-86
2023/04/28 09:38:04;;;;;;;1.15;1.10;;;;;;;;;;4161019;28;20272;-86
2023/04/28 09:40:24;;;;;;;1.00;1.00;;;;;;;;;;4154221;28;20052;-86
2023/04/28 09:42:46;;;;;;;1.00;1.00;;;;;;;;;;4162879;28;20106;-86
2023/04/28 09:45:10;;;;;;;3.28;1.55;;;;;;;;;;4158813;28;20434;-85
2023/04/28 09:47:34;;;;;;;1.30;1.30;;;;;;;;;;4170383;28;20350;-85
2023/04/28 09:49:58;;;;;;;1.05;1.00;;;;;;;;;;4168565;28;20061;-85
2023/04/28 09:52:18;;;;;;;1.27;1.25;;;;;;;;;;4157949;28;20084;-85
2023/04/28 09:54:39;;;;;;;2.50;1.00;;;;;;;;;;4160740;28;20060;-85
2023/04/28 09:56:59;;;;;;;1.10;1.10;;;;;;;;;;4156146;28;20438;-85
2023/04/28 09:59:20;;;;;;;1.85;1.13;;;;;;;;;;4173330;28;20052;-85
2023/04/28 10:01:41;;;;;;;1.30;1.20;;;;;;;;;;4142622;28;20093;-86
2023/04/28 10:04:03;;;;;;;1.20;1.10;;;;;;;;;;4147344;28;20095;-85
2023/04/28 10:06:25;;;;;;;1.30;1.00;;;;;;;;;;4146577;28;20053;-85
2023/04/28 10:08:47;;;;;;;1.52;1.52;;;;;;;;;;4176545;28;20053;-86
2023/04/28 10:11:08;;;;;;;2.45;1.08;;;;;;;;;;4163566;28;20044;-86
2023/04/28 10:13:29;;;;;;;1.10;1.10;;;;;;;;;;4177106;28;20132;-85
2023/04/28 10:15:50;;;;;;;1.15;1.10;;;;;;;;;;4177103;28;20059;-85
2023/04/28 10:18:12;;;;;;;1.30;1.10;;;;;;;;;;4162215;28;20104;-86
2023/04/28 10:20:33;;;;;;;2.45;1.02;;;;;;;;;;4178363;28;20431;-86
2023/04/28 10:22:53;;;;;;;1.10;1.10;;;;;;;;;;4174122;28;20065;-86
2023/04/28 10:25:26;;;;;;;0.90;0.90;;;;;;;;;;4159358;28;20056;-86
2023/04/28 10:27:47;;;;;;;1.20;1.10;;;;;;;;;;4160919;28;20056;-86
2023/04/28 10:30:11;;;;;;;3.50;1.30;;;;;;;;;;4174876;28;20036;-86
2023/04/28 10:32:47;;;;;;;1.25;1.15;;;;;;;;;;4158232;28;20095;-85
2023/04/28 10:35:26;;;;;;;1.15;1.05;;;;;;;;;;4174832;28;20052;-86
2023/04/28 10:38:05;;;;;;;3.10;0.90;;;;;;;;;;4156807;28;20048;-85
2023/04/28 10:40:35;;;;;;;2.75;0.90;;;;;;;;;;4170586;28;20073;-86
2023/04/28 10:42:55;;;;;;;3.13;1.15;;;;;;;;;;4158186;28;20052;-86
2023/04/28 10:45:35;;;;;;;2.65;0.90;;;;;;;;;;4176447;28;20079;-86
2023/04/28 10:48:04;;;;;;;2.03;1.00;;;;;;;;;;4172891;28;20055;-86
2023/04/28 10:50:25;;;;;;;2.22;1.10;;;;;;;;;;4170700;28;20061;-86
2023/04/28 10:52:59;;;;;;;0.93;0.93;;;;;;;;;;4160039;28;20060;-86
2023/04/28 10:55:32;;;;;;;1.02;1.00;;;;;;;;;;4172108;28;20238;-86
2023/04/28 10:58:11;;;;;;;1.00;1.00;;;;;;;;;;4161690;28;20383;-86
2023/04/28 11:00:31;;;;;;;1.65;1.10;;;;;;;;;;4159143;28;20088;-85
2023/04/28 11:02:53;;;;;;;0.80;0.80;;;;;;;;;;4154251;28;20149;-87
2023/04/28 11:05:14;;;;;;;1.48;1.00;;;;;;;;;;4157127;28;20101;-87
2023/04/28 11:07:34;;;;;;;0.93;0.93;;;;;;;;;;4161925;28;20107;-88
2023/04/28 11:09:55;;;;;;;3.33;1.17;;;;;;;;;;4174007;28;20056;-87
2023/04/28 11:12:15;;;;;;;1.02;0.90;;;;;;;;;;4158402;28;20323;-87
2023/04/28 11:14:41;;;;;;;1.75;0.82;;;;;;;;;;4158594;28;20078;-87
2023/04/28 11:17:02;;;;;;;2.75;0.90;;;;;;;;;;4160750;28;20068;-87
2023/04/28 11:19:32;;;;;;;0.80;0.80;;;;;;;;;;4152297;28;20053;-87
2023/04/28 11:21:57;;;;;;;0.80;0.80;;;;;;;;;;4149639;28;20535;-87
2023/04/28 11:24:17;;;;;;;0.98;0.98;;;;;;;;;;4151396;28;20130;-87
2023/04/28 11:26:38;;;;;;;0.98;0.90;;;;;;;;;;4150740;28;20092;-87
2023/04/28 11:28:58;;;;;;;0.80;0.80;;;;;;;;;;4163129;28;20364;-87
2023/04/28 11:31:21;;;;;;;0.90;0.90;;;;;;;;;;4172315;28;20060;-87
2023/04/28 11:33:41;;;;;;;2.60;1.60;;;;;;;;;;4181990;28;20056;-87
2023/04/28 11:36:02;;;;;;;0.80;0.80;;;;;;;;;;4172515;28;20071;-87
2023/04/28 11:38:22;;;;;;;1.58;0.80;;;;;;;;;;4170307;28;20048;-87
2023/04/28 11:40:55;;;;;;;1.10;1.00;;;;;;;;;;4160438;28;20295;-87
2023/04/28 11:43:16;;;;;;;2.13;0.80;;;;;;;;;;4166619;28;20072;-83
2023/04/28 11:45:36;;;;;;;1.05;0.80;;;;;;;;;;4175415;28;20067;-84
2023/04/28 11:47:59;;;;;;;1.77;0.80;;;;;;;;;;4162928;28;20217;-84
2023/04/28 11:50:19;;;;;;;;;;;;;;;;;;4165846;28;20088;-84
2023/04/28 11:52:49;;;;;;;0.70;0.70;;;;;;;;;;4162253;28;19960;-84
2023/04/28 11:55:15;;;;;;;1.27;0.90;;;;;;;;;;4162344;28;20048;-84
2023/04/28 11:57:36;;;;;;;1.10;1.08;;;;;;;;;;4166523;28;20113;-84
2023/04/28 12:00:20;;;;;;;1.00;1.00;;;;;;;;;;4180361;28;20052;-84
2023/04/28 12:02:41;;;;;;;0.80;0.80;;;;;;;;;;4173509;28;20321;-84
2023/04/28 12:05:06;;;;;;;1.30;0.80;;;;;;;;;;4165979;28;20053;-84
2023/04/28 12:07:27;;;;;;;1.52;0.70;;;;;;;;;;4167009;28;20128;-84
2023/04/28 12:09:49;;;;;;;1.88;0.80;;;;;;;;;;4158730;28;20068;-84
2023/04/28 12:12:14;;;;;;;0.80;0.80;;;;;;;;;;4161781;28;20069;-84
2023/04/28 12:14:53;;;;;;;0.80;0.80;;;;;;;;;;4161667;28;20052;-84
2023/04/28 12:17:23;;;;;;;1.85;0.88;;;;;;;;;;4148504;28;20044;-85
2023/04/28 12:19:46;;;;;;;0.80;0.80;;;;;;;;;;4172979;28;20057;-85
2023/04/28 12:22:07;;;;;;;0.70;0.70;;;;;;;;;;4173203;28;20084;-84
2023/04/28 12:24:27;;;;;;;0.75;0.75;;;;;;;;;;4175023;28;20072;-84
2023/04/28 12:26:48;;;;;;;0.88;0.80;;;;;;;;;;4172833;28;20069;-84
2023/04/28 12:29:12;;;;;;;0.93;0.80;;;;;;;;;;4166931;28;20061;-84
2023/04/28 12:31:47;;;;;;;2.35;0.90;;;;;;;;;;4158707;28;20076;-84
2023/04/28 12:34:06;;;;;;;1.10;1.10;;;;;;;;;;4160375;28;20048;-85
2023/04/28 12:36:27;;;;;;;0.80;0.80;;;;;;;;;;4174460;28;20057;-84
2023/04/28 12:38:48;;;;;;;1.80;0.90;;;;;;;;;;4156273;28;20049;-84
2023/04/28 12:41:08;;;;;;;1.58;0.90;;;;;;;;;;4176494;28;20280;-84
2023/04/28 12:43:28;;;;;;;0.82;0.82;;;;;;;;;;4177432;28;20053;-84
2023/04/28 12:45:52;;;;;;;3.63;1.25;;;;;;;;;;4160954;28;20103;-84
2023/04/28 12:48:12;;;;;;;1.00;0.90;;;;;;;;;;4166538;28;20060;-84
2023/04/28 12:50:33;;;;;;;0.90;0.90;;;;;;;;;;4179106;28;20052;-84
2023/04/28 12:52:53;;;;;;;1.38;1.27;;;;;;;;;;4178033;28;20048;-79
2023/04/28 12:55:13;;;;;;;0.80;0.80;;;;;;;;;;4178943;28;20052;-78
2023/04/28 12:57:35;;;;;;;1.02;0.90;;;;;;;;;;4160941;28;20125;-78
2023/04/28 12:59:58;;;;;;;0.80;0.80;;;;;;;;;;4158348;28;20056;-78
2023/04/28 13:02:19;;;;;;;0.80;0.80;;;;;;;;;;4159203;28;20088;-78
2023/04/28 13:04:46;;;;;;;1.15;0.80;;;;;;;;;;4174876;28;20052;-78
2023/04/28 13:07:07;;;;;;;1.83;0.98;;;;;;;;;;4163015;28;20120;-78
2023/04/28 13:09:27;;;;;;;1.38;0.70;;;;;;;;;;4158826;28;20077;-78
2023/04/28 13:11:47;;;;;;;1.40;0.98;;;;;;;;;;4159445;28;20057;-78
2023/04/28 13:14:08;;;;;;;0.90;0.90;;;;;;;;;;4177270;28;20379;-78
2023/04/28 13:16:29;;;;;;;0.93;0.90;;;;;;;;;;4161886;28;20072;-78
2023/04/28 13:18:49;;;;;;;0.90;0.77;;;;;;;;;;4158495;28;20045;-78
2023/04/28 13:21:09;;;;;;;1.45;0.70;;;;;;;;;;4173235;28;20077;-78
2023/04/28 13:23:29;;;;;;;0.80;0.80;;;;;;;;;;4177147;28;20068;-78
2023/04/28 13:25:50;;;;;;;0.80;0.80;;;;;;;;;;4170806;28;20076;-78
2023/04/28 13:28:12;;;;;;;0.90;0.90;;;;;;;;;;4159813;28;20049;-78
2023/04/28 13:30:33;;;;;;;1.25;0.80;;;;;;;;;;4172103;28;20059;-78
2023/04/28 13:32:53;;;;;;;3.33;0.80;;;;;;;;;;4160155;28;20084;-78
2023/04/28 13:35:17;;;;;;;1.00;1.00;;;;;;;;;;4173215;28;20047;-78
2023/04/28 13:37:41;;;;;;;1.55;0.80;;;;;;;;;;4177010;28;20092;-78
2023/04/28 13:40:03;;;;;;;0.80;0.80;;;;;;;;;;4175368;28;20049;-78
2023/04/28 13:42:23;;;;;;;1.75;0.95;;;;;;;;;;4158977;28;20068;-78
2023/04/28 13:44:45;;;;;;;1.10;1.08;;;;;;;;;;4178041;28;20090;-78
2023/04/28 13:47:08;;;;;;;0.90;0.90;;;;;;;;;;4172810;28;20086;-78
2023/04/28 13:49:29;;;;;;;1.20;0.80;;;;;;;;;;4158728;28;20064;-78
2023/04/28 13:51:49;;;;;;;0.80;0.80;;;;;;;;;;4155593;28;20065;-78
2023/04/28 13:54:10;;;;;;;10.40;1.00;;;;;;;;;;4170066;28;20049;-78
2023/04/28 13:56:30;;;;;;;1.50;1.27;;;;;;;;;;4175458;28;20237;-78
2023/04/28 13:58:51;;;;;;;0.85;0.85;;;;;;;;;;4177073;28;20087;-78
2023/04/28 14:01:11;;;;;;;3.22;0.80;;;;;;;;;;4157466;28;20069;-78
2023/04/28 14:03:31;;;;;;;1.08;0.80;;;;;;;;;;4158959;28;20053;-78
2023/04/28 14:05:53;;;;;;;0.98;0.90;;;;;;;;;;4177668;28;20079;-78
2023/04/28 14:08:13;;;;;;;0.90;0.90;;;;;;;;;;4160471;28;20088;-78